N967LI KSRQ-KLAL
Flight info
| Callsign | N967LI |
|---|---|
| Flight time | 0h 21m |
| Altitude | 2500 |
| Route | VFR NORTH NO FF |
| Aircraft | P38/M-DOV/C |
Departure
| Time | 2026-04-26 21:29 |
|---|---|
| Airport | Sarasota Bradenton International Airport (KSRQ) |
Arrival
| Time | 2026-04-26 21:50 |
|---|---|
| Airport | Lakeland Linder International Airport (KLAL) |
| Time | Latitude | Longitude | Altitude | Speed | Heading |
|---|---|---|---|---|---|
| 2026-04-26 21:27 | 27.38593 | -82.54583 | 24 ft | 0 kts | 117° |
| 2026-04-26 21:27 | 27.38588 | -82.54542 | 24 ft | 11 kts | 66° |
| 2026-04-26 21:28 | 27.38649 | -82.54504 | 24 ft | 9 kts | 352° |
| 2026-04-26 21:28 | 27.38806 | -82.54658 | 24 ft | 80 kts | 315° |
| 2026-04-26 21:28 | 27.39409 | -82.55349 | 44 ft | 152 kts | 314° |
| 2026-04-26 21:28 | 27.40185 | -82.56200 | 615 ft | 162 kts | 311° |
| 2026-04-26 21:29 | 27.40640 | -82.57401 | 1186 ft | 180 kts | 270° |
| 2026-04-26 21:29 | 27.40590 | -82.58781 | 2002 ft | 173 kts | 265° |
| 2026-04-26 21:29 | 27.40337 | -82.60216 | 1428 ft | 224 kts | 252° |
| 2026-04-26 21:29 | 27.39569 | -82.61878 | 596 ft | 236 kts | 237° |
| 2026-04-26 21:30 | 27.38724 | -82.63220 | 936 ft | 185 kts | 231° |
| 2026-04-26 21:30 | 27.37908 | -82.64253 | 475 ft | 187 kts | 216° |
| 2026-04-26 21:30 | 27.36650 | -82.64585 | 739 ft | 189 kts | 169° |
| 2026-04-26 21:30 | 27.35847 | -82.64191 | 1117 ft | 194 kts | 147° |
| 2026-04-26 21:31 | 27.34647 | -82.62740 | 1928 ft | 197 kts | 109° |
| 2026-04-26 21:31 | 27.34554 | -82.61187 | 2508 ft | 203 kts | 88° |
| 2026-04-26 21:31 | 27.34285 | -82.59609 | 2771 ft | 222 kts | 119° |
| 2026-04-26 21:31 | 27.33409 | -82.58054 | 2863 ft | 243 kts | 120° |
| 2026-04-26 21:32 | 27.32644 | -82.56359 | 3027 ft | 251 kts | 116° |
| 2026-04-26 21:32 | 27.31919 | -82.54582 | 3164 ft | 251 kts | 112° |
| 2026-04-26 21:32 | 27.31292 | -82.52810 | 3270 ft | 254 kts | 112° |
| 2026-04-26 21:32 | 27.30592 | -82.50914 | 3077 ft | 267 kts | 114° |
| 2026-04-26 21:33 | 27.29899 | -82.49000 | 3366 ft | 256 kts | 107° |
| 2026-04-26 21:33 | 27.29811 | -82.47131 | 3977 ft | 237 kts | 83° |
| 2026-04-26 21:33 | 27.29990 | -82.45241 | 3694 ft | 256 kts | 84° |
| 2026-04-26 21:33 | 27.30284 | -82.43228 | 3431 ft | 267 kts | 77° |
| 2026-04-26 21:34 | 27.30818 | -82.41200 | 3302 ft | 268 kts | 70° |
| 2026-04-26 21:34 | 27.31513 | -82.39277 | 3326 ft | 264 kts | 66° |
| 2026-04-26 21:34 | 27.32209 | -82.37380 | 3335 ft | 259 kts | 68° |
| 2026-04-26 21:34 | 27.32948 | -82.35495 | 2822 ft | 270 kts | 62° |
| 2026-04-26 21:35 | 27.33935 | -82.33704 | 2451 ft | 272 kts | 57° |
| 2026-04-26 21:35 | 27.34843 | -82.32107 | 2384 ft | 263 kts | 56° |
| 2026-04-26 21:35 | 27.35364 | -82.31279 | 2499 ft | 252 kts | 54° |
| 2026-04-26 21:35 | 27.36374 | -82.29712 | 2654 ft | 238 kts | 54° |
| 2026-04-26 21:36 | 27.37373 | -82.28196 | 2533 ft | 244 kts | 51° |
| 2026-04-26 21:36 | 27.38123 | -82.27241 | 2437 ft | 251 kts | 46° |
| 2026-04-26 21:36 | 27.39911 | -82.25488 | 2378 ft | 252 kts | 35° |
| 2026-04-26 21:36 | 27.41326 | -82.24350 | 2507 ft | 248 kts | 35° |
| 2026-04-26 21:37 | 27.42729 | -82.23229 | 2510 ft | 250 kts | 34° |
| 2026-04-26 21:37 | 27.43463 | -82.22644 | 2543 ft | 249 kts | 35° |
| 2026-04-26 21:37 | 27.44897 | -82.21503 | 2481 ft | 253 kts | 34° |
| 2026-04-26 21:37 | 27.46400 | -82.20424 | 2422 ft | 255 kts | 29° |
| 2026-04-26 21:38 | 27.47948 | -82.19424 | 2385 ft | 256 kts | 29° |
| 2026-04-26 21:38 | 27.49517 | -82.18455 | 2299 ft | 259 kts | 26° |
| 2026-04-26 21:38 | 27.51162 | -82.17600 | 2174 ft | 262 kts | 22° |
| 2026-04-26 21:38 | 27.52864 | -82.16833 | 2125 ft | 261 kts | 20° |
| 2026-04-26 21:39 | 27.54572 | -82.16170 | 2280 ft | 252 kts | 17° |
| 2026-04-26 21:39 | 27.56230 | -82.15614 | 2508 ft | 246 kts | 15° |
| 2026-04-26 21:39 | 27.57903 | -82.15052 | 2498 ft | 250 kts | 15° |
| 2026-04-26 21:39 | 27.59591 | -82.14493 | 2455 ft | 255 kts | 15° |
| 2026-04-26 21:40 | 27.61286 | -82.13863 | 2356 ft | 261 kts | 19° |
| 2026-04-26 21:40 | 27.63016 | -82.13155 | 2308 ft | 257 kts | 19° |
| 2026-04-26 21:40 | 27.64671 | -82.12456 | 2177 ft | 254 kts | 21° |
| 2026-04-26 21:40 | 27.66252 | -82.11654 | 2284 ft | 230 kts | 27° |
| 2026-04-26 21:41 | 27.67513 | -82.10755 | 2505 ft | 204 kts | 36° |
| 2026-04-26 21:41 | 27.68635 | -82.09712 | 2375 ft | 214 kts | 43° |
| 2026-04-26 21:41 | 27.69651 | -82.08463 | 2376 ft | 218 kts | 50° |
| 2026-04-26 21:41 | 27.70578 | -82.07089 | 2416 ft | 219 kts | 54° |
| 2026-04-26 21:42 | 27.71423 | -82.05675 | 2486 ft | 219 kts | 57° |
| 2026-04-26 21:42 | 27.72197 | -82.04195 | 2583 ft | 217 kts | 61° |
| 2026-04-26 21:42 | 27.72934 | -82.02657 | 2514 ft | 224 kts | 62° |
| 2026-04-26 21:42 | 27.73754 | -82.01165 | 2554 ft | 224 kts | 56° |
| 2026-04-26 21:43 | 27.74636 | -81.99725 | 2558 ft | 225 kts | 54° |
| 2026-04-26 21:43 | 27.75554 | -81.98264 | 2613 ft | 224 kts | 52° |
| 2026-04-26 21:43 | 27.76690 | -81.97089 | 2586 ft | 226 kts | 30° |
| 2026-04-26 21:43 | 27.78195 | -81.96506 | 2508 ft | 228 kts | 6° |
| 2026-04-26 21:44 | 27.79744 | -81.96248 | 2607 ft | 223 kts | 6° |
| 2026-04-26 21:44 | 27.81248 | -81.96146 | 2586 ft | 225 kts | 357° |
| 2026-04-26 21:44 | 27.82799 | -81.96259 | 2514 ft | 228 kts | 353° |
| 2026-04-26 21:44 | 27.84342 | -81.96536 | 2591 ft | 223 kts | 347° |
| 2026-04-26 21:45 | 27.85867 | -81.96938 | 2557 ft | 225 kts | 343° |
| 2026-04-26 21:45 | 27.87390 | -81.97441 | 2542 ft | 226 kts | 340° |
| 2026-04-26 21:45 | 27.88890 | -81.98006 | 2477 ft | 229 kts | 339° |
| 2026-04-26 21:45 | 27.90414 | -81.98608 | 2366 ft | 233 kts | 339° |
| 2026-04-26 21:46 | 27.91977 | -81.99231 | 2274 ft | 236 kts | 338° |
| 2026-04-26 21:46 | 27.93508 | -81.99876 | 2210 ft | 236 kts | 337° |
| 2026-04-26 21:46 | 27.95031 | -82.00581 | 2196 ft | 234 kts | 335° |
| 2026-04-26 21:46 | 27.96560 | -82.01276 | 2194 ft | 232 kts | 351° |
| 2026-04-26 21:47 | 27.97776 | -82.00412 | 1849 ft | 240 kts | 85° |
| 2026-04-26 21:47 | 27.97672 | -81.98607 | 2155 ft | 212 kts | 96° |
| 2026-04-26 21:47 | 27.97534 | -81.97205 | 2110 ft | 150 kts | 99° |
| 2026-04-26 21:47 | 27.97361 | -81.95970 | 2170 ft | 160 kts | 100° |
| 2026-04-26 21:48 | 27.97691 | -81.94936 | 1596 ft | 151 kts | 26° |
| 2026-04-26 21:48 | 27.98565 | -81.94978 | 1092 ft | 118 kts | 294° |
| 2026-04-26 21:48 | 27.98655 | -81.95927 | 708 ft | 141 kts | 273° |
| 2026-04-26 21:48 | 27.98703 | -81.97081 | 560 ft | 153 kts | 271° |
| 2026-04-26 21:49 | 27.98740 | -81.98251 | 496 ft | 143 kts | 271° |
| 2026-04-26 21:49 | 27.98858 | -81.99376 | 395 ft | 143 kts | 279° |
| 2026-04-26 21:49 | 27.98944 | -82.00482 | 221 ft | 137 kts | 266° |
| 2026-04-26 21:49 | 27.98926 | -82.01427 | 136 ft | 96 kts | 270° |
| 2026-04-26 21:50 | 27.98929 | -82.02048 | 132 ft | 65 kts | 271° |
| 2026-04-26 21:50 | 27.98929 | -82.02354 | 130 ft | 53 kts | 269° |
| 2026-04-26 21:50 | 27.98926 | -82.02808 | 129 ft | 34 kts | 269° |
| 2026-04-26 21:50 | 27.98926 | -82.03046 | 130 ft | 28 kts | 268° |
| 2026-04-26 21:51 | 27.98925 | -82.03249 | 131 ft | 20 kts | 269° |
| 2026-04-26 21:51 | 27.98870 | -82.03351 | 131 ft | 12 kts | 193° |
| 2026-04-26 21:51 | 27.98827 | -82.03365 | 131 ft | 9 kts | 225° |
| 2026-04-26 21:51 | 27.98820 | -82.03426 | 130 ft | 12 kts | 339° |
| 2026-04-26 21:52 | 27.98844 | -82.03432 | 131 ft | 0 kts | 352° |
| 2026-04-26 21:54 | 27.93243 | -82.04338 | 114 ft | 0 kts | 360° |
| 2026-04-26 22:00 | 27.93264 | -82.04350 | 114 ft | 5 kts | 328° |
| 2026-04-26 22:01 | 27.93297 | -82.04380 | 114 ft | 6 kts | 317° |
| 2026-04-26 22:01 | 27.93337 | -82.04424 | 114 ft | 8 kts | 314° |
| 2026-04-26 22:01 | 27.93383 | -82.04484 | 114 ft | 6 kts | 313° |
| 2026-04-26 22:01 | 27.93445 | -82.04530 | 113 ft | 9 kts | 308° |
| 2026-04-26 22:02 | 27.93471 | -82.04568 | 113 ft | 3 kts | 269° |
| 2026-04-26 22:02 | 27.93454 | -82.04565 | 113 ft | 12 kts | 147° |
| 2026-04-26 22:02 | 27.93251 | -82.04340 | 212 ft | 38 kts | 150° |
| 2026-04-26 22:02 | 27.93098 | -82.04072 | 336 ft | 44 kts | 105° |
| 2026-04-26 22:03 | 27.93250 | -82.03716 | 455 ft | 51 kts | 50° |
| 2026-04-26 22:03 | 27.93598 | -82.03553 | 530 ft | 64 kts | 3° |
| 2026-04-26 22:03 | 27.94098 | -82.03552 | 518 ft | 73 kts | 9° |
| 2026-04-26 22:03 | 27.94561 | -82.03437 | 643 ft | 66 kts | 16° |
| 2026-04-26 22:04 | 27.95023 | -82.03288 | 686 ft | 72 kts | 18° |
| 2026-04-26 22:04 | 27.95538 | -82.03117 | 661 ft | 78 kts | 18° |
| 2026-04-26 22:04 | 27.96033 | -82.02956 | 679 ft | 68 kts | 16° |
| 2026-04-26 22:04 | 27.96496 | -82.02821 | 642 ft | 71 kts | 16° |
| 2026-04-26 22:05 | 27.96913 | -82.02583 | 557 ft | 65 kts | 46° |
| 2026-04-26 22:05 | 27.97078 | -82.02132 | 512 ft | 61 kts | 82° |
| 2026-04-26 22:05 | 27.97147 | -82.01666 | 490 ft | 57 kts | 86° |
| 2026-04-26 22:05 | 27.97251 | -82.01239 | 464 ft | 60 kts | 59° |
| 2026-04-26 22:06 | 27.97600 | -82.00988 | 385 ft | 60 kts | 13° |
| 2026-04-26 22:06 | 27.97947 | -82.01143 | 317 ft | 56 kts | 292° |
| 2026-04-26 22:06 | 27.97982 | -82.01546 | 217 ft | 47 kts | 268° |
| 2026-04-26 22:06 | 27.97985 | -82.01892 | 139 ft | 40 kts | 268° |
| 2026-04-26 22:07 | 27.97978 | -82.02151 | 127 ft | 24 kts | 267° |
| 2026-04-26 22:07 | 27.97987 | -82.02208 | 127 ft | 3 kts | 37° |
| 2026-04-26 22:07 | 27.97997 | -82.02185 | 127 ft | 0 kts | 57° |